Hendersonville, NC

3:11 PM EDT on June 03, 2015 (GMT -0400)
Maplewood Ct off Hwy 191 in City | | Change Station
CLOSE
Current Station
Personal Weather Station
Location: Hendersonville, NC
Elevation: 2133 ft
Nearby Weather Stations

Elev 2133 ft 35.33 °N, 82.48 °W | Updated 4 seconds ago

Partly Cloudy
Partly Cloudy
71.7 °F
Feels Like 71 °F
N
2.0
Wind Variable Wind from WSW
Gusts 2.0 mph

Today
High -- | Low -- °F
--% Chance of Precip.
Yesterday
High -- | Low -- °F
Precip. -- in
6:15 AM 8:40 PM
Full, 99% visible
Pressure 29.99 in
Visibility 10.0 miles
Clouds Mostly Cloudy 3300 ft
Mostly Cloudy 5000 ft
Heat Index 71 °F
Dew Point 67 °F
Humidity 84%
Rainfall 0.02 in
Snow Depth Not available.
UV 6 out of 12
Pollen 4.60 out of 12
Air Quality Not available.
Flu Activity No Activity
METAR KAVL 031854Z 15009G15KT 10SM BKN033 BKN050 23/14 A3005 RMK AO2 SLP154 T02330144

More Conditions Fewer Conditions

Pressure 29.99 in
Visibility 10.0 miles
Clouds Mostly Cloudy 3300 ft
Mostly Cloudy 5000 ft
Heat Index 71 °F
Dew Point 67 °F
Humidity 84%
Rainfall 0.02 in
Snow Depth Not available.
UV 6 out of 12
Pollen 4.60 out of 12
Air Quality Not available.
Flu Activity No Activity
METAR KAVL 031854Z 15009G15KT 10SM BKN033 BKN050 23/14 A3005 RMK AO2 SLP154 T02330144

More Conditions Fewer Conditions

10-Day Weather Forecast

×

Almanac

Astronomy

Jun. 03, 2015 Rise Set
Actual Time
Civil Twilight
Nautical Twilight
Astronomical Twilight
Moon
Length of Visible Light
Length of Day
Tomorrow will be .
, % of the Moon is Illuminated

Today's Extremes

State Highs State Lows

Community

WunderPhotos

Upload Photos

1,826,273 photos uploaded!

WunderBlogs® & News

Nearby

Air Quality

  Air Quality AQ Index Pollutant
Not available.

Snow Depth

Station Depth Elevation

Earthquake Activity

City Distance Mag. Time & Date
Minimum magnitude displayed is 2.5.

Coastal Water Temperatures

Place Temperature

Stations

Nearby Weather Stations

Station Location Temp. Windchill Dew Point Humidity Wind Precip. Elev Updated Type